sensor_id;sensor_type;location;lat;lon;timestamp;P1;durP1;ratioP1;P2;durP2;ratioP2
2406;SDS011;37709;53.480;9.688;2022-09-27T00:01:10;5.97;;;5.37;;
2406;SDS011;37709;53.480;9.688;2022-09-27T00:03:39;7.53;;;6.83;;
2406;SDS011;37709;53.480;9.688;2022-09-27T00:06:08;12.40;;;8.20;;
2406;SDS011;37709;53.480;9.688;2022-09-27T00:08:39;15.43;;;8.10;;
2406;SDS011;37709;53.480;9.688;2022-09-27T00:11:42;8.77;;;6.43;;
2406;SDS011;37709;53.480;9.688;2022-09-27T00:14:05;13.60;;;8.23;;
2406;SDS011;37709;53.480;9.688;2022-09-27T00:16:34;7.70;;;6.10;;
2406;SDS011;37709;53.480;9.688;2022-09-27T00:19:05;8.50;;;7.20;;
2406;SDS011;37709;53.480;9.688;2022-09-27T00:21:37;8.40;;;6.20;;
2406;SDS011;37709;53.480;9.688;2022-09-27T00:24:05;14.57;;;7.57;;
2406;SDS011;37709;53.480;9.688;2022-09-27T00:26:32;13.90;;;8.47;;
2406;SDS011;37709;53.480;9.688;2022-09-27T00:29:00;8.10;;;7.10;;
2406;SDS011;37709;53.480;9.688;2022-09-27T00:31:28;8.87;;;6.50;;
2406;SDS011;37709;53.480;9.688;2022-09-27T00:33:57;13.77;;;8.20;;
2406;SDS011;37709;53.480;9.688;2022-09-27T00:36:27;16.43;;;8.40;;
2406;SDS011;37709;53.480;9.688;2022-09-27T00:38:55;14.63;;;9.10;;
2406;SDS011;37709;53.480;9.688;2022-09-27T00:41:27;23.53;;;10.30;;
2406;SDS011;37709;53.480;9.688;2022-09-27T00:43:59;20.40;;;9.63;;
2406;SDS011;37709;53.480;9.688;2022-09-27T00:46:43;15.90;;;8.83;;
2406;SDS011;37709;53.480;9.688;2022-09-27T00:49:35;12.67;;;8.10;;
2406;SDS011;37709;53.480;9.688;2022-09-27T00:52:18;11.50;;;7.90;;
2406;SDS011;37709;53.480;9.688;2022-09-27T00:54:52;15.83;;;8.80;;
2406;SDS011;37709;53.480;9.688;2022-09-27T00:57:23;14.57;;;8.10;;
2406;SDS011;37709;53.480;9.688;2022-09-27T01:00:06;19.47;;;8.57;;
2406;SDS011;37709;53.480;9.688;2022-09-27T01:02:39;14.83;;;8.90;;
2406;SDS011;37709;53.480;9.688;2022-09-27T01:05:10;12.33;;;8.07;;
2406;SDS011;37709;53.480;9.688;2022-09-27T01:07:39;12.07;;;7.50;;
2406;SDS011;37709;53.480;9.688;2022-09-27T01:10:08;10.83;;;6.70;;
2406;SDS011;37709;53.480;9.688;2022-09-27T01:18:37;15.90;;;8.87;;
2406;SDS011;37709;53.480;9.688;2022-09-27T01:24:11;16.00;;;9.27;;
2406;SDS011;37709;53.480;9.688;2022-09-27T01:32:51;15.87;;;9.40;;
2406;SDS011;37709;53.480;9.688;2022-09-27T01:36:09;22.67;;;10.20;;
2406;SDS011;37709;53.480;9.688;2022-09-27T01:44:19;13.03;;;6.93;;
2406;SDS011;37709;53.480;9.688;2022-09-27T01:47:41;13.33;;;8.83;;
2406;SDS011;37709;53.480;9.688;2022-09-27T01:50:29;13.30;;;8.10;;
2406;SDS011;37709;53.480;9.688;2022-09-27T01:53:00;15.47;;;8.23;;
2406;SDS011;37709;53.480;9.688;2022-09-27T01:55:55;14.50;;;8.37;;
2406;SDS011;37709;53.480;9.688;2022-09-27T02:01:16;9.73;;;6.90;;
2406;SDS011;37709;53.480;9.688;2022-09-27T02:03:47;11.17;;;8.30;;
2406;SDS011;37709;53.480;9.688;2022-09-27T02:06:41;13.00;;;8.10;;
2406;SDS011;37709;53.480;9.688;2022-09-27T02:09:17;11.47;;;7.63;;
2406;SDS011;37709;53.480;9.688;2022-09-27T02:12:02;17.53;;;9.20;;
2406;SDS011;37709;53.480;9.688;2022-09-27T02:14:40;31.17;;;10.73;;
2406;SDS011;37709;53.480;9.688;2022-09-27T02:17:22;14.50;;;8.33;;
2406;SDS011;37709;53.480;9.688;2022-09-27T02:22:49;17.67;;;9.67;;
2406;SDS011;37709;53.480;9.688;2022-09-27T02:25:24;15.03;;;8.20;;
2406;SDS011;37709;53.480;9.688;2022-09-27T02:27:59;20.57;;;10.13;;
2406;SDS011;37709;53.480;9.688;2022-09-27T02:30:37;16.73;;;9.33;;
2406;SDS011;37709;53.480;9.688;2022-09-27T02:33:42;18.60;;;9.70;;
2406;SDS011;37709;53.480;9.688;2022-09-27T02:36:15;23.80;;;11.37;;
2406;SDS011;37709;53.480;9.688;2022-09-27T02:38:44;14.00;;;9.00;;
2406;SDS011;37709;53.480;9.688;2022-09-27T02:41:15;20.67;;;10.70;;
2406;SDS011;37709;53.480;9.688;2022-09-27T02:43:45;27.03;;;12.13;;
2406;SDS011;37709;53.480;9.688;2022-09-27T02:55:02;28.13;;;11.90;;
2406;SDS011;37709;53.480;9.688;2022-09-27T02:57:57;31.60;;;11.90;;
2406;SDS011;37709;53.480;9.688;2022-09-27T03:04:06;18.63;;;9.27;;
2406;SDS011;37709;53.480;9.688;2022-09-27T03:06:42;21.90;;;10.77;;
2406;SDS011;37709;53.480;9.688;2022-09-27T03:09:13;27.87;;;10.70;;
2406;SDS011;37709;53.480;9.688;2022-09-27T03:11:44;32.23;;;10.90;;
2406;SDS011;37709;53.480;9.688;2022-09-27T03:14:11;19.50;;;9.30;;
2406;SDS011;37709;53.480;9.688;2022-09-27T03:16:48;25.10;;;10.50;;
2406;SDS011;37709;53.480;9.688;2022-09-27T03:19:54;20.93;;;10.10;;
2406;SDS011;37709;53.480;9.688;2022-09-27T03:22:42;13.77;;;8.07;;
2406;SDS011;37709;53.480;9.688;2022-09-27T03:25:10;16.43;;;9.00;;
2406;SDS011;37709;53.480;9.688;2022-09-27T03:27:38;17.87;;;8.60;;
2406;SDS011;37709;53.480;9.688;2022-09-27T03:30:05;22.93;;;10.80;;
2406;SDS011;37709;53.480;9.688;2022-09-27T03:32:35;20.10;;;10.27;;
2406;SDS011;37709;53.480;9.688;2022-09-27T03:35:26;20.83;;;9.90;;
2406;SDS011;37709;53.480;9.688;2022-09-27T03:37:53;20.97;;;9.70;;
2406;SDS011;37709;53.480;9.688;2022-09-27T03:40:20;29.23;;;10.87;;
2406;SDS011;37709;53.480;9.688;2022-09-27T03:42:48;31.30;;;11.80;;
2406;SDS011;37709;53.480;9.688;2022-09-27T03:45:17;16.97;;;9.10;;
2406;SDS011;37709;53.480;9.688;2022-09-27T03:47:45;21.33;;;10.17;;
2406;SDS011;37709;53.480;9.688;2022-09-27T03:50:14;25.20;;;11.00;;
2406;SDS011;37709;53.480;9.688;2022-09-27T03:52:42;22.40;;;10.67;;
2406;SDS011;37709;53.480;9.688;2022-09-27T03:55:10;26.97;;;11.53;;
2406;SDS011;37709;53.480;9.688;2022-09-27T03:57:38;49.17;;;14.23;;
2406;SDS011;37709;53.480;9.688;2022-09-27T04:00:07;27.57;;;12.37;;
2406;SDS011;37709;53.480;9.688;2022-09-27T04:02:39;29.10;;;12.67;;
2406;SDS011;37709;53.480;9.688;2022-09-27T04:05:22;39.47;;;15.60;;
2406;SDS011;37709;53.480;9.688;2022-09-27T04:08:11;19.97;;;10.30;;
2406;SDS011;37709;53.480;9.688;2022-09-27T04:10:40;29.33;;;12.60;;
2406;SDS011;37709;53.480;9.688;2022-09-27T04:13:08;28.53;;;12.57;;
2406;SDS011;37709;53.480;9.688;2022-09-27T04:15:43;37.50;;;16.10;;
2406;SDS011;37709;53.480;9.688;2022-09-27T04:18:43;29.40;;;13.53;;
2406;SDS011;37709;53.480;9.688;2022-09-27T04:21:41;33.50;;;14.50;;
2406;SDS011;37709;53.480;9.688;2022-09-27T04:24:10;37.70;;;16.00;;
2406;SDS011;37709;53.480;9.688;2022-09-27T04:26:41;45.70;;;16.10;;
2406;SDS011;37709;53.480;9.688;2022-09-27T04:29:11;49.07;;;17.73;;
2406;SDS011;37709;53.480;9.688;2022-09-27T04:31:46;38.90;;;16.60;;
2406;SDS011;37709;53.480;9.688;2022-09-27T04:34:31;43.13;;;16.70;;
2406;SDS011;37709;53.480;9.688;2022-09-27T04:37:22;50.47;;;17.87;;
2406;SDS011;37709;53.480;9.688;2022-09-27T04:39:53;48.03;;;18.47;;
2406;SDS011;37709;53.480;9.688;2022-09-27T04:42:21;72.13;;;21.93;;
2406;SDS011;37709;53.480;9.688;2022-09-27T04:44:49;54.63;;;19.83;;
2406;SDS011;37709;53.480;9.688;2022-09-27T04:47:17;106.33;;;26.87;;
2406;SDS011;37709;53.480;9.688;2022-09-27T04:49:47;41.60;;;18.37;;
2406;SDS011;37709;53.480;9.688;2022-09-27T04:52:15;71.57;;;21.93;;
2406;SDS011;37709;53.480;9.688;2022-09-27T04:54:43;50.47;;;19.47;;
2406;SDS011;37709;53.480;9.688;2022-09-27T04:57:11;78.63;;;23.30;;
2406;SDS011;37709;53.480;9.688;2022-09-27T04:59:40;57.07;;;21.10;;
2406;SDS011;37709;53.480;9.688;2022-09-27T05:02:08;60.07;;;21.17;;
2406;SDS011;37709;53.480;9.688;2022-09-27T05:04:48;45.53;;;20.57;;
2406;SDS011;37709;53.480;9.688;2022-09-27T05:07:18;89.67;;;23.43;;
2406;SDS011;37709;53.480;9.688;2022-09-27T05:09:51;46.77;;;20.70;;
2406;SDS011;37709;53.480;9.688;2022-09-27T05:12:19;47.17;;;20.30;;
2406;SDS011;37709;53.480;9.688;2022-09-27T05:14:59;56.57;;;19.03;;
2406;SDS011;37709;53.480;9.688;2022-09-27T05:18:01;56.70;;;21.00;;
2406;SDS011;37709;53.480;9.688;2022-09-27T05:20:51;44.93;;;18.40;;
2406;SDS011;37709;53.480;9.688;2022-09-27T05:23:28;54.80;;;20.00;;
2406;SDS011;37709;53.480;9.688;2022-09-27T05:25:55;30.60;;;16.50;;
2406;SDS011;37709;53.480;9.688;2022-09-27T05:28:23;26.33;;;14.50;;
2406;SDS011;37709;53.480;9.688;2022-09-27T05:30:50;39.07;;;16.10;;
2406;SDS011;37709;53.480;9.688;2022-09-27T05:33:20;42.57;;;16.37;;
2406;SDS011;37709;53.480;9.688;2022-09-27T05:35:52;28.80;;;15.20;;
2406;SDS011;37709;53.480;9.688;2022-09-27T05:38:23;38.40;;;14.77;;
2406;SDS011;37709;53.480;9.688;2022-09-27T05:40:55;24.93;;;12.37;;
2406;SDS011;37709;53.480;9.688;2022-09-27T05:43:23;20.13;;;11.40;;
2406;SDS011;37709;53.480;9.688;2022-09-27T05:45:52;18.50;;;10.07;;
2406;SDS011;37709;53.480;9.688;2022-09-27T05:48:21;18.13;;;9.23;;
2406;SDS011;37709;53.480;9.688;2022-09-27T05:50:57;19.23;;;8.70;;
2406;SDS011;37709;53.480;9.688;2022-09-27T05:53:26;15.37;;;8.70;;
2406;SDS011;37709;53.480;9.688;2022-09-27T05:56:11;19.33;;;8.87;;
2406;SDS011;37709;53.480;9.688;2022-09-27T05:59:06;13.73;;;7.30;;
2406;SDS011;37709;53.480;9.688;2022-09-27T06:01:54;10.90;;;6.53;;
2406;SDS011;37709;53.480;9.688;2022-09-27T06:04:47;12.53;;;5.87;;
2406;SDS011;37709;53.480;9.688;2022-09-27T06:07:35;9.60;;;5.63;;
2406;SDS011;37709;53.480;9.688;2022-09-27T06:10:12;6.53;;;4.37;;
2406;SDS011;37709;53.480;9.688;2022-09-27T06:12:41;4.37;;;3.20;;
2406;SDS011;37709;53.480;9.688;2022-09-27T06:15:24;5.90;;;3.30;;
2406;SDS011;37709;53.480;9.688;2022-09-27T06:17:52;5.37;;;3.30;;
2406;SDS011;37709;53.480;9.688;2022-09-27T06:20:20;3.47;;;2.27;;
2406;SDS011;37709;53.480;9.688;2022-09-27T06:22:47;3.70;;;2.83;;
2406;SDS011;37709;53.480;9.688;2022-09-27T06:25:17;7.70;;;3.17;;
2406;SDS011;37709;53.480;9.688;2022-09-27T06:27:57;3.50;;;2.30;;
2406;SDS011;37709;53.480;9.688;2022-09-27T06:30:28;2.50;;;2.10;;
2406;SDS011;37709;53.480;9.688;2022-09-27T06:33:00;3.50;;;2.50;;
2406;SDS011;37709;53.480;9.688;2022-09-27T06:35:36;2.93;;;2.10;;
2406;SDS011;37709;53.480;9.688;2022-09-27T06:38:05;4.23;;;2.60;;
2406;SDS011;37709;53.480;9.688;2022-09-27T06:40:38;5.40;;;2.97;;
2406;SDS011;37709;53.480;9.688;2022-09-27T06:43:17;2.60;;;2.33;;
2406;SDS011;37709;53.480;9.688;2022-09-27T06:46:15;2.20;;;1.60;;
2406;SDS011;37709;53.480;9.688;2022-09-27T06:49:02;4.67;;;2.40;;
2406;SDS011;37709;53.480;9.688;2022-09-27T06:51:29;4.93;;;1.97;;
2406;SDS011;37709;53.480;9.688;2022-09-27T06:53:56;2.87;;;2.17;;
2406;SDS011;37709;53.480;9.688;2022-09-27T06:56:24;4.30;;;2.20;;
2406;SDS011;37709;53.480;9.688;2022-09-27T06:58:52;5.00;;;2.07;;
2406;SDS011;37709;53.480;9.688;2022-09-27T07:01:42;3.40;;;2.20;;
2406;SDS011;37709;53.480;9.688;2022-09-27T07:04:29;3.95;;;2.00;;
2406;SDS011;37709;53.480;9.688;2022-09-27T07:06:56;14.03;;;2.80;;
2406;SDS011;37709;53.480;9.688;2022-09-27T07:09:28;3.67;;;2.23;;
2406;SDS011;37709;53.480;9.688;2022-09-27T07:11:55;3.30;;;2.07;;
2406;SDS011;37709;53.480;9.688;2022-09-27T07:14:23;3.50;;;2.07;;
2406;SDS011;37709;53.480;9.688;2022-09-27T07:16:54;5.87;;;2.80;;
2406;SDS011;37709;53.480;9.688;2022-09-27T07:19:23;6.53;;;3.37;;
2406;SDS011;37709;53.480;9.688;2022-09-27T07:21:50;8.23;;;2.97;;
2406;SDS011;37709;53.480;9.688;2022-09-27T07:24:18;6.63;;;3.43;;
2406;SDS011;37709;53.480;9.688;2022-09-27T07:26:46;7.10;;;4.00;;
2406;SDS011;37709;53.480;9.688;2022-09-27T07:29:16;11.17;;;4.00;;
2406;SDS011;37709;53.480;9.688;2022-09-27T07:31:44;7.40;;;3.20;;
2406;SDS011;37709;53.480;9.688;2022-09-27T07:34:13;4.77;;;3.53;;
2406;SDS011;37709;53.480;9.688;2022-09-27T07:36:40;5.17;;;3.80;;
2406;SDS011;37709;53.480;9.688;2022-09-27T07:39:08;7.20;;;3.80;;
2406;SDS011;37709;53.480;9.688;2022-09-27T07:41:37;6.83;;;4.20;;
2406;SDS011;37709;53.480;9.688;2022-09-27T07:44:06;4.20;;;3.23;;
2406;SDS011;37709;53.480;9.688;2022-09-27T07:46:41;7.20;;;3.90;;
2406;SDS011;37709;53.480;9.688;2022-09-27T07:49:18;7.40;;;4.00;;
2406;SDS011;37709;53.480;9.688;2022-09-27T07:51:54;4.90;;;3.83;;
2406;SDS011;37709;53.480;9.688;2022-09-27T07:54:45;5.00;;;3.40;;
2406;SDS011;37709;53.480;9.688;2022-09-27T07:57:33;5.80;;;3.80;;
2406;SDS011;37709;53.480;9.688;2022-09-27T08:00:03;6.00;;;3.53;;
2406;SDS011;37709;53.480;9.688;2022-09-27T08:02:40;5.60;;;2.90;;
2406;SDS011;37709;53.480;9.688;2022-09-27T08:05:08;6.17;;;3.20;;
2406;SDS011;37709;53.480;9.688;2022-09-27T08:07:37;4.37;;;3.20;;
2406;SDS011;37709;53.480;9.688;2022-09-27T08:10:06;4.57;;;3.10;;
2406;SDS011;37709;53.480;9.688;2022-09-27T08:12:36;4.10;;;3.70;;
2406;SDS011;37709;53.480;9.688;2022-09-27T08:15:03;2.43;;;2.20;;
2406;SDS011;37709;53.480;9.688;2022-09-27T08:17:32;3.07;;;2.40;;
2406;SDS011;37709;53.480;9.688;2022-09-27T08:20:06;3.80;;;2.50;;
2406;SDS011;37709;53.480;9.688;2022-09-27T08:22:45;3.00;;;2.70;;
2406;SDS011;37709;53.480;9.688;2022-09-27T08:25:26;2.67;;;2.27;;
2406;SDS011;37709;53.480;9.688;2022-09-27T08:28:25;3.13;;;2.83;;
2406;SDS011;37709;53.480;9.688;2022-09-27T08:30:59;2.20;;;2.00;;
2406;SDS011;37709;53.480;9.688;2022-09-27T08:33:26;2.47;;;2.27;;
2406;SDS011;37709;53.480;9.688;2022-09-27T08:35:59;2.67;;;2.20;;
2406;SDS011;37709;53.480;9.688;2022-09-27T08:38:27;4.07;;;2.60;;
2406;SDS011;37709;53.480;9.688;2022-09-27T08:40:56;3.37;;;2.80;;
2406;SDS011;37709;53.480;9.688;2022-09-27T08:43:42;2.90;;;2.67;;
2406;SDS011;37709;53.480;9.688;2022-09-27T08:48:41;2.73;;;2.13;;
2406;SDS011;37709;53.480;9.688;2022-09-27T08:51:10;2.33;;;2.10;;
2406;SDS011;37709;53.480;9.688;2022-09-27T08:53:42;3.10;;;2.20;;
2406;SDS011;37709;53.480;9.688;2022-09-27T08:56:27;1.90;;;1.80;;
2406;SDS011;37709;53.480;9.688;2022-09-27T08:58:57;2.47;;;2.00;;
2406;SDS011;37709;53.480;9.688;2022-09-27T09:01:32;3.90;;;2.67;;
2406;SDS011;37709;53.480;9.688;2022-09-27T09:04:20;3.20;;;2.60;;
2406;SDS011;37709;53.480;9.688;2022-09-27T09:06:57;2.60;;;1.63;;
2406;SDS011;37709;53.480;9.688;2022-09-27T09:12:37;1.90;;;1.60;;
2406;SDS011;37709;53.480;9.688;2022-09-27T09:15:42;1.93;;;1.40;;
2406;SDS011;37709;53.480;9.688;2022-09-27T09:27:51;1.83;;;1.27;;
2406;SDS011;37709;53.480;9.688;2022-09-27T09:39:12;1.90;;;1.47;;
2406;SDS011;37709;53.480;9.688;2022-09-27T09:41:56;4.87;;;1.90;;
2406;SDS011;37709;53.480;9.688;2022-09-27T09:44:31;2.80;;;2.10;;
2406;SDS011;37709;53.480;9.688;2022-09-27T09:47:27;2.70;;;1.40;;
2406;SDS011;37709;53.480;9.688;2022-09-27T09:50:28;1.97;;;1.73;;
2406;SDS011;37709;53.480;9.688;2022-09-27T09:53:03;1.40;;;1.13;;
2406;SDS011;37709;53.480;9.688;2022-09-27T09:55:54;3.03;;;1.57;;
2406;SDS011;37709;53.480;9.688;2022-09-27T09:58:38;1.73;;;1.50;;
2406;SDS011;37709;53.480;9.688;2022-09-27T10:01:18;1.60;;;1.33;;
2406;SDS011;37709;53.480;9.688;2022-09-27T10:03:48;2.97;;;2.17;;
2406;SDS011;37709;53.480;9.688;2022-09-27T10:06:15;1.67;;;1.53;;
2406;SDS011;37709;53.480;9.688;2022-09-27T10:08:44;3.53;;;2.20;;
2406;SDS011;37709;53.480;9.688;2022-09-27T10:11:28;2.07;;;1.70;;
2406;SDS011;37709;53.480;9.688;2022-09-27T10:14:28;3.27;;;1.90;;
2406;SDS011;37709;53.480;9.688;2022-09-27T10:17:01;2.70;;;1.80;;
2406;SDS011;37709;53.480;9.688;2022-09-27T10:19:32;1.90;;;1.40;;
2406;SDS011;37709;53.480;9.688;2022-09-27T10:25:06;1.67;;;1.40;;
2406;SDS011;37709;53.480;9.688;2022-09-27T10:27:52;1.53;;;1.43;;
2406;SDS011;37709;53.480;9.688;2022-09-27T10:30:30;1.63;;;1.53;;
2406;SDS011;37709;53.480;9.688;2022-09-27T10:33:06;2.13;;;1.30;;
2406;SDS011;37709;53.480;9.688;2022-09-27T10:36:06;2.10;;;1.60;;
2406;SDS011;37709;53.480;9.688;2022-09-27T10:38:51;2.73;;;2.20;;
2406;SDS011;37709;53.480;9.688;2022-09-27T10:41:40;2.57;;;2.13;;
2406;SDS011;37709;53.480;9.688;2022-09-27T10:46:45;2.40;;;1.70;;
2406;SDS011;37709;53.480;9.688;2022-09-27T10:49:31;1.90;;;1.80;;
2406;SDS011;37709;53.480;9.688;2022-09-27T10:52:05;3.20;;;1.50;;
2406;SDS011;37709;53.480;9.688;2022-09-27T10:54:41;2.27;;;1.30;;
2406;SDS011;37709;53.480;9.688;2022-09-27T10:57:18;1.93;;;1.30;;
2406;SDS011;37709;53.480;9.688;2022-09-27T10:59:52;1.50;;;1.40;;
2406;SDS011;37709;53.480;9.688;2022-09-27T11:02:33;1.97;;;1.30;;
2406;SDS011;37709;53.480;9.688;2022-09-27T11:07:57;2.63;;;1.97;;
2406;SDS011;37709;53.480;9.688;2022-09-27T11:10:40;2.30;;;1.83;;
2406;SDS011;37709;53.480;9.688;2022-09-27T11:13:13;2.80;;;1.40;;
2406;SDS011;37709;53.480;9.688;2022-09-27T11:21:20;1.67;;;1.57;;
2406;SDS011;37709;53.480;9.688;2022-09-27T11:24:18;2.87;;;1.80;;
2406;SDS011;37709;53.480;9.688;2022-09-27T11:30:19;1.53;;;1.27;;
2406;SDS011;37709;53.480;9.688;2022-09-27T11:36:12;1.30;;;1.17;;
2406;SDS011;37709;53.480;9.688;2022-09-27T11:41:46;1.43;;;1.10;;
2406;SDS011;37709;53.480;9.688;2022-09-27T11:50:05;1.10;;;1.00;;
2406;SDS011;37709;53.480;9.688;2022-09-27T11:52:49;1.60;;;1.10;;
2406;SDS011;37709;53.480;9.688;2022-09-27T12:04:17;1.57;;;0.80;;
2406;SDS011;37709;53.480;9.688;2022-09-27T12:07:16;1.37;;;0.80;;
2406;SDS011;37709;53.480;9.688;2022-09-27T12:09:54;1.97;;;1.40;;
2406;SDS011;37709;53.480;9.688;2022-09-27T12:12:30;1.60;;;0.93;;
2406;SDS011;37709;53.480;9.688;2022-09-27T12:15:01;2.70;;;1.07;;
2406;SDS011;37709;53.480;9.688;2022-09-27T12:17:34;1.23;;;0.67;;
2406;SDS011;37709;53.480;9.688;2022-09-27T12:20:06;1.63;;;0.87;;
2406;SDS011;37709;53.480;9.688;2022-09-27T12:22:49;1.20;;;0.60;;
2406;SDS011;37709;53.480;9.688;2022-09-27T12:25:42;1.07;;;0.70;;
2406;SDS011;37709;53.480;9.688;2022-09-27T12:34:09;1.33;;;0.57;;
2406;SDS011;37709;53.480;9.688;2022-09-27T12:37:31;0.80;;;0.60;;
2406;SDS011;37709;53.480;9.688;2022-09-27T12:42:23;1.10;;;0.63;;
2406;SDS011;37709;53.480;9.688;2022-09-27T12:45:26;1.60;;;0.90;;
2406;SDS011;37709;53.480;9.688;2022-09-27T12:50:57;1.47;;;0.60;;
2406;SDS011;37709;53.480;9.688;2022-09-27T13:02:21;0.97;;;0.50;;
2406;SDS011;37709;53.480;9.688;2022-09-27T13:13:29;0.70;;;0.60;;
2406;SDS011;37709;53.480;9.688;2022-09-27T13:16:04;1.73;;;1.00;;
2406;SDS011;37709;53.480;9.688;2022-09-27T13:24:29;0.90;;;0.73;;
2406;SDS011;37709;53.480;9.688;2022-09-27T13:27:34;1.23;;;0.70;;
2406;SDS011;37709;53.480;9.688;2022-09-27T13:32:36;0.93;;;0.50;;
2406;SDS011;37709;53.480;9.688;2022-09-27T13:35:23;2.13;;;1.13;;
2406;SDS011;37709;53.480;9.688;2022-09-27T13:38:00;1.63;;;0.80;;
2406;SDS011;37709;53.480;9.688;2022-09-27T13:40:42;1.00;;;0.70;;
2406;SDS011;37709;53.480;9.688;2022-09-27T13:46:19;2.00;;;0.87;;
2406;SDS011;37709;53.480;9.688;2022-09-27T13:48:52;1.33;;;0.80;;
2406;SDS011;37709;53.480;9.688;2022-09-27T13:51:43;1.37;;;0.90;;
2406;SDS011;37709;53.480;9.688;2022-09-27T13:57:02;1.90;;;1.27;;
2406;SDS011;37709;53.480;9.688;2022-09-27T13:59:42;4.00;;;1.30;;
2406;SDS011;37709;53.480;9.688;2022-09-27T14:05:37;2.83;;;1.90;;
2406;SDS011;37709;53.480;9.688;2022-09-27T14:08:13;2.63;;;2.30;;
2406;SDS011;37709;53.480;9.688;2022-09-27T14:11:11;2.80;;;2.03;;
2406;SDS011;37709;53.480;9.688;2022-09-27T14:13:43;2.50;;;1.73;;
2406;SDS011;37709;53.480;9.688;2022-09-27T14:16:13;2.90;;;2.70;;
2406;SDS011;37709;53.480;9.688;2022-09-27T14:18:44;4.13;;;3.30;;
2406;SDS011;37709;53.480;9.688;2022-09-27T14:21:25;3.00;;;2.70;;
2406;SDS011;37709;53.480;9.688;2022-09-27T14:24:31;5.20;;;2.60;;
2406;SDS011;37709;53.480;9.688;2022-09-27T14:27:35;2.60;;;2.40;;
2406;SDS011;37709;53.480;9.688;2022-09-27T14:30:18;1.63;;;1.47;;
2406;SDS011;37709;53.480;9.688;2022-09-27T14:32:53;1.77;;;1.67;;
2406;SDS011;37709;53.480;9.688;2022-09-27T14:35:31;3.27;;;2.30;;
2406;SDS011;37709;53.480;9.688;2022-09-27T14:38:19;2.00;;;1.80;;
2406;SDS011;37709;53.480;9.688;2022-09-27T14:41:37;2.00;;;1.80;;
2406;SDS011;37709;53.480;9.688;2022-09-27T14:44:17;2.33;;;1.73;;
2406;SDS011;37709;53.480;9.688;2022-09-27T14:47:06;1.70;;;1.60;;
2406;SDS011;37709;53.480;9.688;2022-09-27T14:49:47;1.70;;;1.50;;
2406;SDS011;37709;53.480;9.688;2022-09-27T14:52:18;1.70;;;1.60;;
2406;SDS011;37709;53.480;9.688;2022-09-27T14:54:54;1.93;;;1.23;;
2406;SDS011;37709;53.480;9.688;2022-09-27T14:57:31;1.90;;;1.30;;
2406;SDS011;37709;53.480;9.688;2022-09-27T15:00:01;1.37;;;1.27;;
2406;SDS011;37709;53.480;9.688;2022-09-27T15:02:47;4.70;;;1.10;;
2406;SDS011;37709;53.480;9.688;2022-09-27T15:05:24;0.77;;;0.70;;
2406;SDS011;37709;53.480;9.688;2022-09-27T15:07:57;0.90;;;0.80;;
2406;SDS011;37709;53.480;9.688;2022-09-27T15:10:28;4.30;;;1.07;;
2406;SDS011;37709;53.480;9.688;2022-09-27T15:12:58;1.63;;;1.00;;
2406;SDS011;37709;53.480;9.688;2022-09-27T15:15:28;1.87;;;0.70;;
2406;SDS011;37709;53.480;9.688;2022-09-27T15:17:58;0.80;;;0.70;;
2406;SDS011;37709;53.480;9.688;2022-09-27T15:23:02;2.00;;;0.80;;
2406;SDS011;37709;53.480;9.688;2022-09-27T15:25:32;2.97;;;1.07;;
2406;SDS011;37709;53.480;9.688;2022-09-27T15:30:42;2.93;;;1.97;;
2406;SDS011;37709;53.480;9.688;2022-09-27T15:33:22;1.30;;;0.80;;
2406;SDS011;37709;53.480;9.688;2022-09-27T15:35:59;1.37;;;0.60;;
2406;SDS011;37709;53.480;9.688;2022-09-27T15:38:36;1.33;;;0.63;;
2406;SDS011;37709;53.480;9.688;2022-09-27T15:41:15;2.33;;;0.77;;
2406;SDS011;37709;53.480;9.688;2022-09-27T15:43:45;1.33;;;0.63;;
2406;SDS011;37709;53.480;9.688;2022-09-27T15:49:16;1.30;;;0.63;;
2406;SDS011;37709;53.480;9.688;2022-09-27T15:51:50;0.97;;;0.83;;
2406;SDS011;37709;53.480;9.688;2022-09-27T15:54:22;2.20;;;0.93;;
2406;SDS011;37709;53.480;9.688;2022-09-27T15:56:53;2.53;;;0.60;;
2406;SDS011;37709;53.480;9.688;2022-09-27T15:59:25;2.90;;;1.00;;
2406;SDS011;37709;53.480;9.688;2022-09-27T16:01:55;1.63;;;0.77;;
2406;SDS011;37709;53.480;9.688;2022-09-27T16:04:25;2.40;;;0.67;;
2406;SDS011;37709;53.480;9.688;2022-09-27T16:06:53;1.27;;;0.93;;
2406;SDS011;37709;53.480;9.688;2022-09-27T16:09:21;2.83;;;0.90;;
2406;SDS011;37709;53.480;9.688;2022-09-27T16:11:48;1.20;;;0.83;;
2406;SDS011;37709;53.480;9.688;2022-09-27T16:14:16;1.43;;;1.00;;
2406;SDS011;37709;53.480;9.688;2022-09-27T16:16:50;3.23;;;1.07;;
2406;SDS011;37709;53.480;9.688;2022-09-27T16:19:18;1.10;;;0.90;;
2406;SDS011;37709;53.480;9.688;2022-09-27T16:21:46;2.10;;;0.83;;
2406;SDS011;37709;53.480;9.688;2022-09-27T16:24:14;0.77;;;0.70;;
2406;SDS011;37709;53.480;9.688;2022-09-27T16:26:43;2.20;;;1.00;;
2406;SDS011;37709;53.480;9.688;2022-09-27T16:29:11;0.83;;;0.60;;
2406;SDS011;37709;53.480;9.688;2022-09-27T16:31:40;1.17;;;0.90;;
2406;SDS011;37709;53.480;9.688;2022-09-27T16:34:08;0.80;;;0.67;;
2406;SDS011;37709;53.480;9.688;2022-09-27T16:36:36;0.83;;;0.70;;
2406;SDS011;37709;53.480;9.688;2022-09-27T16:39:05;1.40;;;0.70;;
2406;SDS011;37709;53.480;9.688;2022-09-27T16:41:34;0.90;;;0.40;;
2406;SDS011;37709;53.480;9.688;2022-09-27T16:44:06;0.80;;;0.50;;
2406;SDS011;37709;53.480;9.688;2022-09-27T16:46:39;0.60;;;0.50;;
2406;SDS011;37709;53.480;9.688;2022-09-27T16:49:07;0.90;;;0.50;;
2406;SDS011;37709;53.480;9.688;2022-09-27T16:51:56;1.10;;;0.70;;
2406;SDS011;37709;53.480;9.688;2022-09-27T16:54:29;0.90;;;0.50;;
2406;SDS011;37709;53.480;9.688;2022-09-27T16:56:57;0.97;;;0.50;;
2406;SDS011;37709;53.480;9.688;2022-09-27T16:59:26;1.00;;;0.60;;
2406;SDS011;37709;53.480;9.688;2022-09-27T17:01:53;1.63;;;0.70;;
2406;SDS011;37709;53.480;9.688;2022-09-27T17:04:24;1.63;;;0.87;;
2406;SDS011;37709;53.480;9.688;2022-09-27T17:06:53;1.53;;;0.60;;
2406;SDS011;37709;53.480;9.688;2022-09-27T17:09:21;0.60;;;0.50;;
2406;SDS011;37709;53.480;9.688;2022-09-27T17:11:49;1.00;;;0.40;;
2406;SDS011;37709;53.480;9.688;2022-09-27T17:14:17;1.23;;;0.80;;
2406;SDS011;37709;53.480;9.688;2022-09-27T17:16:45;2.67;;;0.50;;
2406;SDS011;37709;53.480;9.688;2022-09-27T17:19:14;1.20;;;0.70;;
2406;SDS011;37709;53.480;9.688;2022-09-27T17:21:43;2.50;;;0.50;;
2406;SDS011;37709;53.480;9.688;2022-09-27T17:24:11;1.27;;;0.70;;
2406;SDS011;37709;53.480;9.688;2022-09-27T17:26:39;1.47;;;1.00;;
2406;SDS011;37709;53.480;9.688;2022-09-27T17:29:08;3.83;;;1.00;;
2406;SDS011;37709;53.480;9.688;2022-09-27T17:31:37;1.80;;;1.27;;
2406;SDS011;37709;53.480;9.688;2022-09-27T17:34:07;0.80;;;0.80;;
2406;SDS011;37709;53.480;9.688;2022-09-27T17:36:40;0.90;;;0.80;;
2406;SDS011;37709;53.480;9.688;2022-09-27T17:39:10;0.90;;;0.80;;
2406;SDS011;37709;53.480;9.688;2022-09-27T17:41:38;1.17;;;1.07;;
2406;SDS011;37709;53.480;9.688;2022-09-27T17:44:06;1.33;;;1.23;;
2406;SDS011;37709;53.480;9.688;2022-09-27T17:46:35;3.10;;;1.50;;
2406;SDS011;37709;53.480;9.688;2022-09-27T17:49:03;2.00;;;1.80;;
2406;SDS011;37709;53.480;9.688;2022-09-27T17:51:51;1.83;;;1.73;;
2406;SDS011;37709;53.480;9.688;2022-09-27T17:54:20;2.37;;;2.17;;
2406;SDS011;37709;53.480;9.688;2022-09-27T17:56:49;2.10;;;1.90;;
2406;SDS011;37709;53.480;9.688;2022-09-27T17:59:17;3.20;;;2.90;;
2406;SDS011;37709;53.480;9.688;2022-09-27T18:01:45;3.13;;;2.80;;
2406;SDS011;37709;53.480;9.688;2022-09-27T18:04:15;2.90;;;2.70;;
2406;SDS011;37709;53.480;9.688;2022-09-27T18:06:45;3.30;;;3.00;;
2406;SDS011;37709;53.480;9.688;2022-09-27T18:09:14;3.07;;;2.73;;
2406;SDS011;37709;53.480;9.688;2022-09-27T18:11:43;3.00;;;2.50;;
2406;SDS011;37709;53.480;9.688;2022-09-27T18:14:11;5.33;;;3.17;;
2406;SDS011;37709;53.480;9.688;2022-09-27T18:16:39;3.30;;;3.00;;
2406;SDS011;37709;53.480;9.688;2022-09-27T18:19:11;3.17;;;2.70;;
2406;SDS011;37709;53.480;9.688;2022-09-27T18:21:41;2.87;;;2.10;;